Terminal Aerodrome Forecast
Issued by NWS Shreveport, LA

Current Version | Previous Version | Text Only | Print | Product List | Glossary On
Versions: 1 2 3 4 5 6 7 8 9 10 11 12 13 14
000
FTUS44 KSHV 231700 RRA
TAFTYR
TAF
KTYR 231743Z 2318/2418 VRB05KT P6SM BKN110
     FM232100 08004KT P6SM SCT050 BKN070
     FM240000 09003KT P6SM BKN050
     FM241500 17004KT P6SM BKN045=

USA.gov is the U.S. government's official web portal to all federal, state and local government web resources and services.